sensor_id;sensor_type;location;lat;lon;timestamp;P1;durP1;ratioP1;P2;durP2;ratioP2
70985;SDS011;58645;43.068;25.610;2024-02-04T00:01:22;19.50;;;10.32;;
70985;SDS011;58645;43.068;25.610;2024-02-04T00:03:48;18.88;;;10.25;;
70985;SDS011;58645;43.068;25.610;2024-02-04T00:06:14;19.65;;;11.95;;
70985;SDS011;58645;43.068;25.610;2024-02-04T00:08:40;19.08;;;10.60;;
70985;SDS011;58645;43.068;25.610;2024-02-04T00:11:05;17.70;;;10.75;;
70985;SDS011;58645;43.068;25.610;2024-02-04T00:13:33;19.15;;;9.95;;
70985;SDS011;58645;43.068;25.610;2024-02-04T00:15:59;17.38;;;8.90;;
70985;SDS011;58645;43.068;25.610;2024-02-04T00:18:25;17.15;;;9.23;;
70985;SDS011;58645;43.068;25.610;2024-02-04T00:20:51;20.25;;;10.73;;
70985;SDS011;58645;43.068;25.610;2024-02-04T00:23:17;19.48;;;10.57;;
70985;SDS011;58645;43.068;25.610;2024-02-04T00:25:42;19.25;;;10.55;;
70985;SDS011;58645;43.068;25.610;2024-02-04T00:28:08;11.55;;;6.97;;
70985;SDS011;58645;43.068;25.610;2024-02-04T00:30:37;14.88;;;8.30;;
70985;SDS011;58645;43.068;25.610;2024-02-04T00:33:03;16.13;;;9.52;;
70985;SDS011;58645;43.068;25.610;2024-02-04T00:35:29;15.18;;;7.65;;
70985;SDS011;58645;43.068;25.610;2024-02-04T00:37:56;14.30;;;8.18;;
70985;SDS011;58645;43.068;25.610;2024-02-04T00:40:22;15.88;;;9.60;;
70985;SDS011;58645;43.068;25.610;2024-02-04T00:42:48;15.45;;;8.75;;
70985;SDS011;58645;43.068;25.610;2024-02-04T00:45:13;15.65;;;9.30;;
70985;SDS011;58645;43.068;25.610;2024-02-04T00:47:39;13.57;;;8.32;;
70985;SDS011;58645;43.068;25.610;2024-02-04T00:50:05;13.23;;;7.20;;
70985;SDS011;58645;43.068;25.610;2024-02-04T00:52:31;10.80;;;6.63;;
70985;SDS011;58645;43.068;25.610;2024-02-04T00:54:57;10.18;;;5.65;;
70985;SDS011;58645;43.068;25.610;2024-02-04T00:57:23;10.73;;;5.80;;
70985;SDS011;58645;43.068;25.610;2024-02-04T00:59:48;8.82;;;5.13;;
70985;SDS011;58645;43.068;25.610;2024-02-04T01:02:15;11.05;;;5.28;;
70985;SDS011;58645;43.068;25.610;2024-02-04T01:04:41;8.40;;;5.10;;
70985;SDS011;58645;43.068;25.610;2024-02-04T01:07:07;8.05;;;4.95;;
70985;SDS011;58645;43.068;25.610;2024-02-04T01:09:32;8.43;;;4.97;;
70985;SDS011;58645;43.068;25.610;2024-02-04T01:11:58;8.20;;;4.97;;
70985;SDS011;58645;43.068;25.610;2024-02-04T01:14:24;7.93;;;4.28;;
70985;SDS011;58645;43.068;25.610;2024-02-04T01:16:50;9.98;;;4.80;;
70985;SDS011;58645;43.068;25.610;2024-02-04T01:19:15;8.27;;;4.90;;
70985;SDS011;58645;43.068;25.610;2024-02-04T01:21:41;8.18;;;4.95;;
70985;SDS011;58645;43.068;25.610;2024-02-04T01:24:07;7.55;;;4.88;;
70985;SDS011;58645;43.068;25.610;2024-02-04T01:26:33;7.40;;;4.35;;
70985;SDS011;58645;43.068;25.610;2024-02-04T01:28:58;8.60;;;4.72;;
70985;SDS011;58645;43.068;25.610;2024-02-04T01:31:24;8.73;;;4.95;;
70985;SDS011;58645;43.068;25.610;2024-02-04T01:33:50;11.60;;;5.00;;
70985;SDS011;58645;43.068;25.610;2024-02-04T01:36:15;8.45;;;4.75;;
70985;SDS011;58645;43.068;25.610;2024-02-04T01:38:41;8.80;;;4.63;;
70985;SDS011;58645;43.068;25.610;2024-02-04T01:41:07;8.55;;;4.80;;
70985;SDS011;58645;43.068;25.610;2024-02-04T01:43:33;7.15;;;4.50;;
70985;SDS011;58645;43.068;25.610;2024-02-04T01:45:58;9.10;;;5.32;;
70985;SDS011;58645;43.068;25.610;2024-02-04T01:48:24;10.18;;;5.50;;
70985;SDS011;58645;43.068;25.610;2024-02-04T01:50:51;8.65;;;5.38;;
70985;SDS011;58645;43.068;25.610;2024-02-04T01:53:20;9.85;;;5.50;;
70985;SDS011;58645;43.068;25.610;2024-02-04T01:55:48;10.98;;;5.38;;
70985;SDS011;58645;43.068;25.610;2024-02-04T01:58:14;8.63;;;4.65;;
70985;SDS011;58645;43.068;25.610;2024-02-04T02:00:41;9.73;;;4.93;;
70985;SDS011;58645;43.068;25.610;2024-02-04T02:03:07;8.07;;;4.90;;
70985;SDS011;58645;43.068;25.610;2024-02-04T02:05:36;7.80;;;4.72;;
70985;SDS011;58645;43.068;25.610;2024-02-04T02:08:02;9.35;;;5.40;;
70985;SDS011;58645;43.068;25.610;2024-02-04T02:10:28;10.45;;;5.88;;
70985;SDS011;58645;43.068;25.610;2024-02-04T02:13:04;8.85;;;4.90;;
70985;SDS011;58645;43.068;25.610;2024-02-04T02:15:40;9.48;;;5.18;;
70985;SDS011;58645;43.068;25.610;2024-02-04T02:18:20;7.72;;;4.38;;
70985;SDS011;58645;43.068;25.610;2024-02-04T02:21:02;6.38;;;4.18;;
70985;SDS011;58645;43.068;25.610;2024-02-04T02:26:35;7.55;;;4.93;;
70985;SDS011;58645;43.068;25.610;2024-02-04T02:29:04;8.55;;;5.13;;
70985;SDS011;58645;43.068;25.610;2024-02-04T02:31:37;7.30;;;4.30;;
70985;SDS011;58645;43.068;25.610;2024-02-04T02:34:04;7.13;;;4.18;;
70985;SDS011;58645;43.068;25.610;2024-02-04T02:36:33;5.72;;;3.70;;
70985;SDS011;58645;43.068;25.610;2024-02-04T02:39:08;4.90;;;3.70;;
70985;SDS011;58645;43.068;25.610;2024-02-04T02:41:38;6.10;;;3.72;;
70985;SDS011;58645;43.068;25.610;2024-02-04T02:44:09;5.97;;;3.50;;
70985;SDS011;58645;43.068;25.610;2024-02-04T02:46:36;5.65;;;3.15;;
70985;SDS011;58645;43.068;25.610;2024-02-04T02:49:02;5.88;;;3.13;;
70985;SDS011;58645;43.068;25.610;2024-02-04T02:51:29;5.70;;;3.72;;
70985;SDS011;58645;43.068;25.610;2024-02-04T02:53:55;6.68;;;3.92;;
70985;SDS011;58645;43.068;25.610;2024-02-04T02:56:20;7.85;;;3.90;;
70985;SDS011;58645;43.068;25.610;2024-02-04T02:58:46;8.02;;;3.90;;
70985;SDS011;58645;43.068;25.610;2024-02-04T03:01:12;6.90;;;3.85;;
70985;SDS011;58645;43.068;25.610;2024-02-04T03:03:37;7.05;;;4.38;;
70985;SDS011;58645;43.068;25.610;2024-02-04T03:06:03;9.32;;;5.90;;
70985;SDS011;58645;43.068;25.610;2024-02-04T03:08:29;8.68;;;4.82;;
70985;SDS011;58645;43.068;25.610;2024-02-04T03:10:55;7.70;;;4.65;;
70985;SDS011;58645;43.068;25.610;2024-02-04T03:13:21;7.72;;;4.72;;
70985;SDS011;58645;43.068;25.610;2024-02-04T03:15:47;9.10;;;5.22;;
70985;SDS011;58645;43.068;25.610;2024-02-04T03:18:12;10.90;;;5.88;;
70985;SDS011;58645;43.068;25.610;2024-02-04T03:20:38;13.02;;;6.60;;
70985;SDS011;58645;43.068;25.610;2024-02-04T03:23:04;13.55;;;7.82;;
70985;SDS011;58645;43.068;25.610;2024-02-04T03:25:30;12.15;;;7.07;;
70985;SDS011;58645;43.068;25.610;2024-02-04T03:27:56;14.10;;;6.22;;
70985;SDS011;58645;43.068;25.610;2024-02-04T03:30:22;16.63;;;5.90;;
70985;SDS011;58645;43.068;25.610;2024-02-04T03:32:47;14.45;;;5.90;;
70985;SDS011;58645;43.068;25.610;2024-02-04T03:35:13;27.05;;;6.95;;
70985;SDS011;58645;43.068;25.610;2024-02-04T03:37:39;11.80;;;5.20;;
70985;SDS011;58645;43.068;25.610;2024-02-04T03:40:05;19.33;;;6.70;;
70985;SDS011;58645;43.068;25.610;2024-02-04T03:42:31;11.00;;;4.22;;
70985;SDS011;58645;43.068;25.610;2024-02-04T03:44:57;13.27;;;4.30;;
70985;SDS011;58645;43.068;25.610;2024-02-04T03:47:23;13.65;;;4.25;;
70985;SDS011;58645;43.068;25.610;2024-02-04T03:49:48;14.00;;;4.85;;
70985;SDS011;58645;43.068;25.610;2024-02-04T03:52:14;18.05;;;5.15;;
70985;SDS011;58645;43.068;25.610;2024-02-04T03:54:40;15.10;;;4.82;;
70985;SDS011;58645;43.068;25.610;2024-02-04T03:57:05;22.33;;;4.20;;
70985;SDS011;58645;43.068;25.610;2024-02-04T03:59:31;20.75;;;4.55;;
70985;SDS011;58645;43.068;25.610;2024-02-04T04:01:57;20.08;;;4.40;;
70985;SDS011;58645;43.068;25.610;2024-02-04T04:04:23;13.68;;;4.15;;
70985;SDS011;58645;43.068;25.610;2024-02-04T04:06:49;14.82;;;3.40;;
70985;SDS011;58645;43.068;25.610;2024-02-04T04:09:14;12.38;;;3.75;;
70985;SDS011;58645;43.068;25.610;2024-02-04T04:11:40;6.20;;;3.58;;
70985;SDS011;58645;43.068;25.610;2024-02-04T04:14:06;6.32;;;2.75;;
70985;SDS011;58645;43.068;25.610;2024-02-04T04:16:32;7.40;;;2.83;;
70985;SDS011;58645;43.068;25.610;2024-02-04T04:18:57;5.25;;;2.08;;
70985;SDS011;58645;43.068;25.610;2024-02-04T04:21:26;3.85;;;2.03;;
70985;SDS011;58645;43.068;25.610;2024-02-04T04:23:52;4.30;;;2.28;;
70985;SDS011;58645;43.068;25.610;2024-02-04T04:26:17;2.30;;;1.60;;
70985;SDS011;58645;43.068;25.610;2024-02-04T04:28:43;2.88;;;1.85;;
70985;SDS011;58645;43.068;25.610;2024-02-04T04:31:09;2.50;;;1.83;;
70985;SDS011;58645;43.068;25.610;2024-02-04T04:33:38;3.33;;;1.88;;
70985;SDS011;58645;43.068;25.610;2024-02-04T04:36:04;2.65;;;1.67;;
70985;SDS011;58645;43.068;25.610;2024-02-04T04:38:30;3.55;;;1.95;;
70985;SDS011;58645;43.068;25.610;2024-02-04T04:40:56;3.97;;;2.08;;
70985;SDS011;58645;43.068;25.610;2024-02-04T04:43:21;3.67;;;2.08;;
70985;SDS011;58645;43.068;25.610;2024-02-04T04:45:47;2.75;;;1.73;;
70985;SDS011;58645;43.068;25.610;2024-02-04T04:48:13;3.33;;;2.42;;
70985;SDS011;58645;43.068;25.610;2024-02-04T04:50:39;3.65;;;2.15;;
70985;SDS011;58645;43.068;25.610;2024-02-04T04:53:05;3.38;;;2.03;;
70985;SDS011;58645;43.068;25.610;2024-02-04T04:55:30;3.05;;;1.83;;
70985;SDS011;58645;43.068;25.610;2024-02-04T04:57:56;4.40;;;2.00;;
70985;SDS011;58645;43.068;25.610;2024-02-04T05:00:22;2.75;;;1.73;;
70985;SDS011;58645;43.068;25.610;2024-02-04T05:02:48;4.38;;;2.40;;
70985;SDS011;58645;43.068;25.610;2024-02-04T05:05:14;4.35;;;2.30;;
70985;SDS011;58645;43.068;25.610;2024-02-04T05:07:39;2.80;;;2.03;;
70985;SDS011;58645;43.068;25.610;2024-02-04T05:10:05;3.85;;;2.10;;
70985;SDS011;58645;43.068;25.610;2024-02-04T05:12:32;3.28;;;2.20;;
70985;SDS011;58645;43.068;25.610;2024-02-04T05:14:59;3.35;;;1.85;;
70985;SDS011;58645;43.068;25.610;2024-02-04T05:17:26;3.28;;;1.90;;
70985;SDS011;58645;43.068;25.610;2024-02-04T05:19:52;3.53;;;1.70;;
70985;SDS011;58645;43.068;25.610;2024-02-04T05:22:17;2.58;;;1.42;;
70985;SDS011;58645;43.068;25.610;2024-02-04T05:24:43;4.13;;;2.30;;
70985;SDS011;58645;43.068;25.610;2024-02-04T05:27:09;3.58;;;1.83;;
70985;SDS011;58645;43.068;25.610;2024-02-04T05:29:35;2.80;;;1.85;;
70985;SDS011;58645;43.068;25.610;2024-02-04T05:32:00;3.10;;;1.98;;
70985;SDS011;58645;43.068;25.610;2024-02-04T05:34:26;4.07;;;1.95;;
70985;SDS011;58645;43.068;25.610;2024-02-04T05:36:52;4.15;;;2.17;;
70985;SDS011;58645;43.068;25.610;2024-02-04T05:39:18;3.15;;;1.85;;
70985;SDS011;58645;43.068;25.610;2024-02-04T05:41:44;3.70;;;2.33;;
70985;SDS011;58645;43.068;25.610;2024-02-04T05:44:09;3.75;;;1.83;;
70985;SDS011;58645;43.068;25.610;2024-02-04T05:46:35;2.92;;;1.50;;
70985;SDS011;58645;43.068;25.610;2024-02-04T05:49:01;3.58;;;1.70;;
70985;SDS011;58645;43.068;25.610;2024-02-04T05:51:27;4.03;;;2.30;;
70985;SDS011;58645;43.068;25.610;2024-02-04T05:53:53;14.25;;;2.90;;
70985;SDS011;58645;43.068;25.610;2024-02-04T05:56:20;8.13;;;2.60;;
70985;SDS011;58645;43.068;25.610;2024-02-04T05:58:46;13.13;;;3.05;;
70985;SDS011;58645;43.068;25.610;2024-02-04T06:01:12;12.27;;;3.10;;
70985;SDS011;58645;43.068;25.610;2024-02-04T06:03:40;12.07;;;3.33;;
70985;SDS011;58645;43.068;25.610;2024-02-04T06:06:08;7.85;;;2.38;;
70985;SDS011;58645;43.068;25.610;2024-02-04T06:08:34;3.15;;;1.95;;
70985;SDS011;58645;43.068;25.610;2024-02-04T06:11:00;6.22;;;1.90;;
70985;SDS011;58645;43.068;25.610;2024-02-04T06:13:25;4.53;;;2.00;;
70985;SDS011;58645;43.068;25.610;2024-02-04T06:15:51;4.80;;;2.40;;
70985;SDS011;58645;43.068;25.610;2024-02-04T06:18:17;4.28;;;2.30;;
70985;SDS011;58645;43.068;25.610;2024-02-04T06:20:43;4.82;;;2.95;;
70985;SDS011;58645;43.068;25.610;2024-02-04T06:23:08;4.25;;;2.33;;
70985;SDS011;58645;43.068;25.610;2024-02-04T06:25:34;4.70;;;2.50;;
70985;SDS011;58645;43.068;25.610;2024-02-04T06:28:00;4.15;;;2.20;;
70985;SDS011;58645;43.068;25.610;2024-02-04T06:30:26;4.93;;;2.47;;
70985;SDS011;58645;43.068;25.610;2024-02-04T06:32:51;4.07;;;2.15;;
70985;SDS011;58645;43.068;25.610;2024-02-04T06:35:17;3.28;;;1.92;;
70985;SDS011;58645;43.068;25.610;2024-02-04T06:37:43;4.00;;;2.35;;
70985;SDS011;58645;43.068;25.610;2024-02-04T06:40:10;4.78;;;1.98;;
70985;SDS011;58645;43.068;25.610;2024-02-04T06:42:36;6.03;;;2.20;;
70985;SDS011;58645;43.068;25.610;2024-02-04T06:45:02;3.90;;;2.25;;
70985;SDS011;58645;43.068;25.610;2024-02-04T06:47:28;6.38;;;2.33;;
70985;SDS011;58645;43.068;25.610;2024-02-04T06:49:54;3.92;;;1.70;;
70985;SDS011;58645;43.068;25.610;2024-02-04T06:52:20;3.28;;;2.08;;
70985;SDS011;58645;43.068;25.610;2024-02-04T06:54:45;3.70;;;2.30;;
70985;SDS011;58645;43.068;25.610;2024-02-04T06:57:11;4.60;;;2.88;;
70985;SDS011;58645;43.068;25.610;2024-02-04T06:59:37;3.38;;;2.28;;
70985;SDS011;58645;43.068;25.610;2024-02-04T07:02:03;7.75;;;3.83;;
70985;SDS011;58645;43.068;25.610;2024-02-04T07:04:28;4.82;;;2.42;;
70985;SDS011;58645;43.068;25.610;2024-02-04T07:06:54;4.10;;;2.03;;
70985;SDS011;58645;43.068;25.610;2024-02-04T07:09:20;3.58;;;2.03;;
70985;SDS011;58645;43.068;25.610;2024-02-04T07:11:45;5.28;;;3.03;;
70985;SDS011;58645;43.068;25.610;2024-02-04T07:14:11;4.95;;;2.55;;
70985;SDS011;58645;43.068;25.610;2024-02-04T07:16:38;5.15;;;3.05;;
70985;SDS011;58645;43.068;25.610;2024-02-04T07:19:03;8.52;;;5.25;;
70985;SDS011;58645;43.068;25.610;2024-02-04T07:21:29;6.00;;;3.33;;
70985;SDS011;58645;43.068;25.610;2024-02-04T07:23:55;5.57;;;2.50;;
70985;SDS011;58645;43.068;25.610;2024-02-04T07:26:21;4.60;;;2.10;;
70985;SDS011;58645;43.068;25.610;2024-02-04T07:28:46;4.55;;;2.42;;
70985;SDS011;58645;43.068;25.610;2024-02-04T07:31:12;3.63;;;2.25;;
70985;SDS011;58645;43.068;25.610;2024-02-04T07:33:38;4.07;;;2.60;;
70985;SDS011;58645;43.068;25.610;2024-02-04T07:36:03;4.28;;;2.53;;
70985;SDS011;58645;43.068;25.610;2024-02-04T07:38:30;5.18;;;2.25;;
70985;SDS011;58645;43.068;25.610;2024-02-04T07:40:55;3.45;;;2.10;;
70985;SDS011;58645;43.068;25.610;2024-02-04T07:43:24;3.47;;;2.10;;
70985;SDS011;58645;43.068;25.610;2024-02-04T07:45:50;3.95;;;2.40;;
70985;SDS011;58645;43.068;25.610;2024-02-04T07:48:16;4.80;;;2.42;;
70985;SDS011;58645;43.068;25.610;2024-02-04T07:50:42;4.57;;;2.63;;
70985;SDS011;58645;43.068;25.610;2024-02-04T07:53:08;4.93;;;2.83;;
70985;SDS011;58645;43.068;25.610;2024-02-04T07:55:34;3.72;;;2.55;;
70985;SDS011;58645;43.068;25.610;2024-02-04T07:58:00;4.10;;;2.53;;
70985;SDS011;58645;43.068;25.610;2024-02-04T08:00:25;3.05;;;1.48;;
70985;SDS011;58645;43.068;25.610;2024-02-04T08:02:51;4.35;;;2.60;;
70985;SDS011;58645;43.068;25.610;2024-02-04T08:05:17;4.15;;;2.63;;
70985;SDS011;58645;43.068;25.610;2024-02-04T08:07:43;3.80;;;2.35;;
70985;SDS011;58645;43.068;25.610;2024-02-04T08:10:09;4.53;;;2.95;;
70985;SDS011;58645;43.068;25.610;2024-02-04T08:12:34;5.82;;;3.03;;
70985;SDS011;58645;43.068;25.610;2024-02-04T08:15:00;4.63;;;2.50;;
70985;SDS011;58645;43.068;25.610;2024-02-04T08:17:26;4.57;;;2.35;;
70985;SDS011;58645;43.068;25.610;2024-02-04T08:19:56;5.35;;;2.40;;
70985;SDS011;58645;43.068;25.610;2024-02-04T08:22:22;4.57;;;2.78;;
70985;SDS011;58645;43.068;25.610;2024-02-04T08:24:48;4.75;;;2.45;;
70985;SDS011;58645;43.068;25.610;2024-02-04T08:27:13;3.28;;;2.45;;
70985;SDS011;58645;43.068;25.610;2024-02-04T08:29:43;5.45;;;2.72;;
70985;SDS011;58645;43.068;25.610;2024-02-04T08:32:09;4.68;;;2.55;;
70985;SDS011;58645;43.068;25.610;2024-02-04T08:34:34;4.20;;;2.80;;
70985;SDS011;58645;43.068;25.610;2024-02-04T08:37:00;3.33;;;1.83;;
70985;SDS011;58645;43.068;25.610;2024-02-04T08:39:27;3.80;;;2.17;;
70985;SDS011;58645;43.068;25.610;2024-02-04T08:41:55;6.57;;;2.55;;
70985;SDS011;58645;43.068;25.610;2024-02-04T08:44:20;5.57;;;2.60;;
70985;SDS011;58645;43.068;25.610;2024-02-04T08:46:46;4.90;;;2.75;;
70985;SDS011;58645;43.068;25.610;2024-02-04T08:49:12;3.28;;;2.28;;
70985;SDS011;58645;43.068;25.610;2024-02-04T08:51:37;4.40;;;2.60;;
70985;SDS011;58645;43.068;25.610;2024-02-04T08:54:03;4.07;;;2.80;;
70985;SDS011;58645;43.068;25.610;2024-02-04T08:56:29;3.47;;;2.45;;
70985;SDS011;58645;43.068;25.610;2024-02-04T08:58:55;6.07;;;2.72;;
70985;SDS011;58645;43.068;25.610;2024-02-04T09:01:20;4.45;;;2.60;;
70985;SDS011;58645;43.068;25.610;2024-02-04T09:03:47;4.43;;;2.53;;
70985;SDS011;58645;43.068;25.610;2024-02-04T09:06:12;4.93;;;2.42;;
70985;SDS011;58645;43.068;25.610;2024-02-04T09:08:38;3.60;;;2.33;;
70985;SDS011;58645;43.068;25.610;2024-02-04T09:11:04;2.65;;;1.85;;
70985;SDS011;58645;43.068;25.610;2024-02-04T09:13:30;4.78;;;2.60;;
70985;SDS011;58645;43.068;25.610;2024-02-04T09:15:55;3.65;;;2.35;;
70985;SDS011;58645;43.068;25.610;2024-02-04T09:18:21;4.43;;;2.50;;
70985;SDS011;58645;43.068;25.610;2024-02-04T09:20:47;4.20;;;2.50;;
70985;SDS011;58645;43.068;25.610;2024-02-04T09:23:13;3.72;;;2.20;;
70985;SDS011;58645;43.068;25.610;2024-02-04T09:25:39;4.78;;;2.03;;
70985;SDS011;58645;43.068;25.610;2024-02-04T09:28:05;4.50;;;2.28;;
70985;SDS011;58645;43.068;25.610;2024-02-04T09:30:31;5.30;;;2.67;;
70985;SDS011;58645;43.068;25.610;2024-02-04T09:32:56;4.50;;;2.97;;
70985;SDS011;58645;43.068;25.610;2024-02-04T09:35:22;4.38;;;2.60;;
70985;SDS011;58645;43.068;25.610;2024-02-04T09:37:48;4.85;;;2.85;;
70985;SDS011;58645;43.068;25.610;2024-02-04T09:40:16;5.07;;;2.85;;
70985;SDS011;58645;43.068;25.610;2024-02-04T09:42:42;4.03;;;2.65;;
70985;SDS011;58645;43.068;25.610;2024-02-04T09:45:08;5.05;;;3.45;;
70985;SDS011;58645;43.068;25.610;2024-02-04T09:47:35;5.90;;;3.30;;
70985;SDS011;58645;43.068;25.610;2024-02-04T09:50:01;4.32;;;2.95;;
70985;SDS011;58645;43.068;25.610;2024-02-04T09:52:30;5.13;;;2.83;;
70985;SDS011;58645;43.068;25.610;2024-02-04T09:55:01;5.82;;;2.92;;
70985;SDS011;58645;43.068;25.610;2024-02-04T09:57:31;4.80;;;2.53;;
70985;SDS011;58645;43.068;25.610;2024-02-04T09:59:59;4.13;;;2.50;;
70985;SDS011;58645;43.068;25.610;2024-02-04T10:02:28;3.80;;;2.67;;
70985;SDS011;58645;43.068;25.610;2024-02-04T10:04:55;5.18;;;2.78;;
70985;SDS011;58645;43.068;25.610;2024-02-04T10:07:20;4.03;;;2.45;;
70985;SDS011;58645;43.068;25.610;2024-02-04T10:09:46;4.43;;;3.05;;
70985;SDS011;58645;43.068;25.610;2024-02-04T10:12:12;3.65;;;2.55;;
70985;SDS011;58645;43.068;25.610;2024-02-04T10:14:38;4.43;;;2.63;;
70985;SDS011;58645;43.068;25.610;2024-02-04T10:17:04;5.07;;;2.83;;
70985;SDS011;58645;43.068;25.610;2024-02-04T10:19:30;6.03;;;2.72;;
70985;SDS011;58645;43.068;25.610;2024-02-04T10:21:59;5.35;;;3.63;;
70985;SDS011;58645;43.068;25.610;2024-02-04T10:24:26;6.60;;;2.42;;
70985;SDS011;58645;43.068;25.610;2024-02-04T10:26:53;4.63;;;2.80;;
70985;SDS011;58645;43.068;25.610;2024-02-04T10:29:20;4.45;;;2.03;;
70985;SDS011;58645;43.068;25.610;2024-02-04T10:31:46;5.80;;;2.25;;
70985;SDS011;58645;43.068;25.610;2024-02-04T10:34:12;4.07;;;2.10;;
70985;SDS011;58645;43.068;25.610;2024-02-04T10:36:39;3.60;;;2.30;;
70985;SDS011;58645;43.068;25.610;2024-02-04T10:39:05;2.92;;;2.30;;
70985;SDS011;58645;43.068;25.610;2024-02-04T10:43:59;5.03;;;3.13;;
70985;SDS011;58645;43.068;25.610;2024-02-04T10:46:28;4.72;;;2.53;;
70985;SDS011;58645;43.068;25.610;2024-02-04T10:48:59;3.45;;;2.40;;
70985;SDS011;58645;43.068;25.610;2024-02-04T10:51:28;4.80;;;2.40;;
70985;SDS011;58645;43.068;25.610;2024-02-04T10:53:56;3.78;;;2.30;;
70985;SDS011;58645;43.068;25.610;2024-02-04T10:56:30;3.58;;;2.47;;
70985;SDS011;58645;43.068;25.610;2024-02-04T10:59:01;3.05;;;2.13;;
70985;SDS011;58645;43.068;25.610;2024-02-04T11:01:28;4.35;;;2.03;;
70985;SDS011;58645;43.068;25.610;2024-02-04T11:03:55;3.55;;;2.00;;
70985;SDS011;58645;43.068;25.610;2024-02-04T11:06:22;4.72;;;2.13;;
70985;SDS011;58645;43.068;25.610;2024-02-04T11:08:52;4.55;;;2.42;;
70985;SDS011;58645;43.068;25.610;2024-02-04T11:11:19;3.53;;;2.60;;
70985;SDS011;58645;43.068;25.610;2024-02-04T11:13:47;3.63;;;2.00;;
70985;SDS011;58645;43.068;25.610;2024-02-04T11:16:31;4.03;;;2.53;;
70985;SDS011;58645;43.068;25.610;2024-02-04T11:21:53;4.63;;;2.45;;
70985;SDS011;58645;43.068;25.610;2024-02-04T11:27:06;3.83;;;1.63;;
70985;SDS011;58645;43.068;25.610;2024-02-04T11:29:32;3.25;;;2.03;;
70985;SDS011;58645;43.068;25.610;2024-02-04T11:32:01;3.00;;;2.05;;
70985;SDS011;58645;43.068;25.610;2024-02-04T11:34:27;4.28;;;2.10;;
70985;SDS011;58645;43.068;25.610;2024-02-04T11:36:54;4.07;;;2.33;;
70985;SDS011;58645;43.068;25.610;2024-02-04T11:39:20;4.03;;;1.80;;
70985;SDS011;58645;43.068;25.610;2024-02-04T11:41:48;2.83;;;1.83;;
70985;SDS011;58645;43.068;25.610;2024-02-04T11:44:23;3.97;;;2.13;;
70985;SDS011;58645;43.068;25.610;2024-02-04T11:46:51;3.70;;;2.10;;
70985;SDS011;58645;43.068;25.610;2024-02-04T11:49:17;5.15;;;1.90;;
70985;SDS011;58645;43.068;25.610;2024-02-04T11:51:48;3.03;;;2.03;;
70985;SDS011;58645;43.068;25.610;2024-02-04T11:54:16;2.67;;;1.70;;
70985;SDS011;58645;43.068;25.610;2024-02-04T11:56:44;2.83;;;1.70;;
70985;SDS011;58645;43.068;25.610;2024-02-04T11:59:14;3.35;;;2.20;;
70985;SDS011;58645;43.068;25.610;2024-02-04T12:01:40;2.58;;;1.60;;
70985;SDS011;58645;43.068;25.610;2024-02-04T12:04:10;3.90;;;1.63;;
70985;SDS011;58645;43.068;25.610;2024-02-04T12:06:40;3.72;;;2.20;;
70985;SDS011;58645;43.068;25.610;2024-02-04T12:09:06;3.75;;;1.67;;
70985;SDS011;58645;43.068;25.610;2024-02-04T12:11:37;2.88;;;1.67;;
70985;SDS011;58645;43.068;25.610;2024-02-04T12:14:06;3.10;;;1.80;;
70985;SDS011;58645;43.068;25.610;2024-02-04T12:16:32;3.97;;;2.00;;
70985;SDS011;58645;43.068;25.610;2024-02-04T12:19:04;4.20;;;2.08;;
70985;SDS011;58645;43.068;25.610;2024-02-04T12:21:30;3.42;;;1.70;;
70985;SDS011;58645;43.068;25.610;2024-02-04T12:23:58;4.78;;;1.60;;
70985;SDS011;58645;43.068;25.610;2024-02-04T12:26:24;2.65;;;1.60;;
70985;SDS011;58645;43.068;25.610;2024-02-04T12:28:51;5.03;;;1.92;;
70985;SDS011;58645;43.068;25.610;2024-02-04T12:31:19;2.72;;;1.80;;
70985;SDS011;58645;43.068;25.610;2024-02-04T12:33:56;6.13;;;2.25;;
70985;SDS011;58645;43.068;25.610;2024-02-04T12:36:32;3.13;;;1.83;;
70985;SDS011;58645;43.068;25.610;2024-02-04T12:39:02;2.45;;;1.77;;
70985;SDS011;58645;43.068;25.610;2024-02-04T12:41:35;4.05;;;1.90;;
70985;SDS011;58645;43.068;25.610;2024-02-04T12:44:00;2.83;;;1.63;;
70985;SDS011;58645;43.068;25.610;2024-02-04T12:46:28;4.07;;;2.22;;
70985;SDS011;58645;43.068;25.610;2024-02-04T12:48:54;3.10;;;1.77;;
70985;SDS011;58645;43.068;25.610;2024-02-04T12:51:25;2.78;;;1.75;;
70985;SDS011;58645;43.068;25.610;2024-02-04T12:54:01;3.42;;;2.13;;
70985;SDS011;58645;43.068;25.610;2024-02-04T13:01:59;3.60;;;2.17;;
70985;SDS011;58645;43.068;25.610;2024-02-04T13:04:35;4.47;;;2.05;;
70985;SDS011;58645;43.068;25.610;2024-02-04T13:07:12;2.47;;;1.42;;
70985;SDS011;58645;43.068;25.610;2024-02-04T13:09:45;2.72;;;1.73;;
70985;SDS011;58645;43.068;25.610;2024-02-04T13:12:11;2.70;;;1.42;;
70985;SDS011;58645;43.068;25.610;2024-02-04T13:14:41;3.03;;;1.55;;
70985;SDS011;58645;43.068;25.610;2024-02-04T13:17:07;5.05;;;1.65;;
70985;SDS011;58645;43.068;25.610;2024-02-04T13:19:37;2.60;;;1.58;;
70985;SDS011;58645;43.068;25.610;2024-02-04T13:22:03;3.47;;;2.00;;
70985;SDS011;58645;43.068;25.610;2024-02-04T13:24:30;4.10;;;1.90;;
70985;SDS011;58645;43.068;25.610;2024-02-04T13:26:56;2.72;;;1.90;;
70985;SDS011;58645;43.068;25.610;2024-02-04T13:29:23;3.53;;;1.58;;
70985;SDS011;58645;43.068;25.610;2024-02-04T13:31:49;3.15;;;1.63;;
70985;SDS011;58645;43.068;25.610;2024-02-04T13:34:15;3.38;;;1.85;;
70985;SDS011;58645;43.068;25.610;2024-02-04T13:36:41;3.55;;;2.05;;
70985;SDS011;58645;43.068;25.610;2024-02-04T13:39:08;4.45;;;2.28;;
70985;SDS011;58645;43.068;25.610;2024-02-04T13:41:34;3.40;;;1.83;;
70985;SDS011;58645;43.068;25.610;2024-02-04T13:44:01;4.18;;;1.60;;
70985;SDS011;58645;43.068;25.610;2024-02-04T13:46:27;2.85;;;1.42;;
70985;SDS011;58645;43.068;25.610;2024-02-04T13:48:52;4.25;;;1.90;;
70985;SDS011;58645;43.068;25.610;2024-02-04T13:51:18;3.55;;;1.90;;
70985;SDS011;58645;43.068;25.610;2024-02-04T13:53:44;3.28;;;1.85;;
70985;SDS011;58645;43.068;25.610;2024-02-04T13:56:09;2.88;;;1.63;;
70985;SDS011;58645;43.068;25.610;2024-02-04T13:58:35;5.43;;;1.70;;
70985;SDS011;58645;43.068;25.610;2024-02-04T14:01:01;3.05;;;1.88;;
70985;SDS011;58645;43.068;25.610;2024-02-04T14:03:28;2.72;;;1.73;;
70985;SDS011;58645;43.068;25.610;2024-02-04T14:05:54;3.05;;;1.92;;
70985;SDS011;58645;43.068;25.610;2024-02-04T14:08:20;3.67;;;2.08;;
70985;SDS011;58645;43.068;25.610;2024-02-04T14:10:46;3.40;;;1.60;;
70985;SDS011;58645;43.068;25.610;2024-02-04T14:13:12;2.03;;;1.17;;
70985;SDS011;58645;43.068;25.610;2024-02-04T14:15:38;3.45;;;1.63;;
70985;SDS011;58645;43.068;25.610;2024-02-04T14:18:04;3.60;;;1.63;;
70985;SDS011;58645;43.068;25.610;2024-02-04T14:20:30;3.15;;;1.45;;
70985;SDS011;58645;43.068;25.610;2024-02-04T14:22:56;2.55;;;1.83;;
70985;SDS011;58645;43.068;25.610;2024-02-04T14:25:22;3.05;;;1.73;;
70985;SDS011;58645;43.068;25.610;2024-02-04T14:27:49;4.80;;;2.45;;
70985;SDS011;58645;43.068;25.610;2024-02-04T14:32:41;3.47;;;1.33;;
70985;SDS011;58645;43.068;25.610;2024-02-04T14:35:08;5.05;;;2.85;;
70985;SDS011;58645;43.068;25.610;2024-02-04T14:37:35;3.70;;;1.90;;
70985;SDS011;58645;43.068;25.610;2024-02-04T14:40:02;4.68;;;2.47;;
70985;SDS011;58645;43.068;25.610;2024-02-04T14:42:31;3.75;;;2.03;;
70985;SDS011;58645;43.068;25.610;2024-02-04T14:47:27;3.22;;;2.33;;
70985;SDS011;58645;43.068;25.610;2024-02-04T14:49:53;2.97;;;1.73;;
70985;SDS011;58645;43.068;25.610;2024-02-04T14:54:45;3.92;;;2.35;;